createdAt,value
2019-02-20T00:02:27.111Z,2.60
2019-02-20T00:04:57.806Z,2.50
2019-02-20T00:07:28.833Z,2.50
2019-02-20T00:09:58.315Z,2.60
2019-02-20T00:12:32.546Z,2.50
2019-02-20T00:15:01.977Z,2.50
2019-02-20T00:17:32.956Z,2.50
2019-02-20T00:20:02.431Z,2.50
2019-02-20T00:22:40.046Z,2.40
2019-02-20T00:25:06.572Z,2.40
2019-02-20T00:27:37.483Z,2.40
2019-02-20T00:30:09.319Z,2.40
2019-02-20T00:32:40.128Z,2.40
2019-02-20T00:35:09.616Z,2.40
2019-02-20T00:37:40.393Z,2.40
2019-02-20T00:40:11.520Z,2.40
2019-02-20T00:42:42.844Z,2.40
2019-02-20T00:45:25.737Z,2.30
2019-02-20T00:47:59.798Z,2.30
2019-02-20T00:50:30.914Z,2.30
2019-02-20T00:53:02.073Z,2.30
2019-02-20T00:55:32.849Z,2.30
2019-02-20T00:58:02.431Z,2.30
2019-02-20T01:00:33.301Z,2.30
2019-02-20T01:03:03.005Z,2.30
2019-02-20T01:05:32.579Z,2.30
2019-02-20T01:08:02.092Z,2.30
2019-02-20T01:10:32.980Z,2.30
2019-02-20T01:13:02.495Z,2.40
2019-02-20T01:15:33.179Z,2.30
2019-02-20T01:18:02.645Z,2.40
2019-02-20T01:20:32.195Z,2.40
2019-02-20T01:23:01.631Z,2.30
2019-02-20T01:25:31.123Z,2.30
2019-02-20T01:28:00.796Z,2.30
2019-02-20T01:30:30.274Z,2.30
2019-02-20T01:32:59.712Z,2.20
2019-02-20T01:35:30.658Z,2.30
2019-02-20T01:38:00.108Z,2.20
2019-02-20T01:40:31.071Z,2.20
2019-02-20T01:43:00.582Z,2.20
2019-02-20T01:45:31.555Z,2.10
2019-02-20T01:48:01.104Z,2.20
2019-02-20T01:50:32.379Z,2.00
2019-02-20T01:53:09.977Z,2.00
2019-02-20T01:55:34.230Z,2.00
2019-02-20T01:58:03.680Z,2.00
2019-02-20T02:00:34.490Z,2.00
2019-02-20T02:03:04.102Z,2.10
2019-02-20T02:05:34.995Z,2.10
2019-02-20T02:08:04.519Z,2.10
2019-02-20T02:10:34.035Z,2.10
2019-02-20T02:13:03.548Z,2.30
2019-02-20T02:15:34.551Z,2.30
2019-02-20T02:18:03.964Z,2.30
2019-02-20T02:20:33.578Z,2.40
2019-02-20T02:23:02.976Z,2.30
2019-02-20T02:25:33.855Z,2.10
2019-02-20T02:28:03.340Z,2.00
2019-02-20T02:30:34.299Z,2.00
2019-02-20T02:33:03.747Z,1.90
2019-02-20T02:35:34.558Z,1.90
2019-02-20T02:38:04.054Z,1.90
2019-02-20T02:40:35.062Z,1.80
2019-02-20T02:43:04.551Z,1.80
2019-02-20T02:45:34.072Z,1.80
2019-02-20T02:48:03.479Z,1.80
2019-02-20T02:50:34.455Z,1.80
2019-02-20T02:53:03.886Z,1.80
2019-02-20T02:55:33.315Z,1.70
2019-02-20T02:58:02.793Z,1.70
2019-02-20T03:00:33.903Z,1.80
2019-02-20T03:03:03.456Z,1.70
2019-02-20T03:05:34.169Z,1.70
2019-02-20T03:08:03.587Z,1.70
2019-02-20T03:10:34.796Z,1.70
2019-02-20T03:13:04.279Z,1.70
2019-02-20T03:15:33.788Z,1.70
2019-02-20T03:18:03.270Z,1.70
2019-02-20T03:20:32.783Z,1.80
2019-02-20T03:23:02.260Z,1.70
2019-02-20T03:25:32.992Z,1.70
2019-02-20T03:28:02.473Z,1.70
2019-02-20T03:30:33.183Z,1.80
2019-02-20T03:33:02.633Z,1.80
2019-02-20T03:35:32.110Z,1.70
2019-02-20T03:38:01.556Z,1.70
2019-02-20T03:40:31.240Z,1.80
2019-02-20T03:43:00.682Z,1.90
2019-02-20T03:45:31.664Z,1.90
2019-02-20T03:48:01.108Z,1.80
2019-02-20T03:50:32.085Z,1.80
2019-02-20T03:53:01.526Z,1.80
2019-02-20T03:55:31.011Z,1.80
2019-02-20T03:58:00.567Z,1.70
2019-02-20T04:00:31.651Z,1.60
2019-02-20T04:03:01.159Z,1.40
2019-02-20T04:05:32.242Z,1.50
2019-02-20T04:08:01.756Z,1.40
2019-02-20T04:10:32.645Z,1.30
2019-02-20T04:13:02.074Z,1.00
2019-02-20T04:15:32.930Z,0.80
2019-02-20T04:18:02.389Z,0.90
2019-02-20T04:20:31.968Z,1.00
2019-02-20T04:23:01.411Z,1.00
2019-02-20T04:25:31.516Z,1.10
2019-02-20T04:28:00.977Z,1.10
2019-02-20T04:30:31.840Z,1.20
2019-02-20T04:33:01.301Z,1.30
2019-02-20T04:35:30.784Z,1.40
2019-02-20T04:38:00.227Z,1.60
2019-02-20T04:40:29.639Z,1.50
2019-02-20T04:42:59.079Z,1.60
2019-02-20T04:45:28.687Z,1.50
2019-02-20T04:47:59.698Z,1.60
2019-02-20T04:50:30.571Z,1.70
2019-02-20T04:53:00.019Z,1.60
2019-02-20T04:55:29.431Z,1.60
2019-02-20T04:58:16.165Z,1.60
2019-02-20T05:00:46.914Z,1.40
2019-02-20T05:03:16.433Z,1.50
2019-02-20T05:05:47.211Z,1.30
2019-02-20T05:08:16.733Z,1.40
2019-02-20T05:10:47.621Z,1.40
2019-02-20T05:13:17.142Z,1.30
2019-02-20T05:15:46.629Z,1.30
2019-02-20T05:18:16.116Z,1.30
2019-02-20T05:20:47.026Z,1.30
2019-02-20T05:23:16.440Z,1.30
2019-02-20T05:25:45.976Z,1.20
2019-02-20T05:28:15.393Z,1.20
2019-02-20T05:30:46.107Z,1.10
2019-02-20T05:33:15.506Z,1.20
2019-02-20T05:35:46.233Z,1.20
2019-02-20T05:38:15.632Z,1.30
2019-02-20T05:40:46.490Z,1.30
2019-02-20T05:43:15.993Z,1.40
2019-02-20T05:45:45.500Z,1.40
2019-02-20T05:48:14.990Z,1.50
2019-02-20T05:50:45.721Z,1.40
2019-02-20T05:53:15.139Z,1.40
2019-02-20T05:55:44.589Z,1.50
2019-02-20T05:58:14.024Z,1.60
2019-02-20T06:00:44.729Z,1.60
2019-02-20T06:03:14.155Z,1.50
2019-02-20T06:05:43.675Z,1.50
2019-02-20T06:08:13.154Z,1.50
2019-02-20T06:10:43.974Z,1.50
2019-02-20T06:13:13.379Z,1.50
2019-02-20T06:15:43.205Z,1.50
2019-02-20T06:18:12.682Z,1.50
2019-02-20T06:20:43.397Z,1.50
2019-02-20T06:23:12.808Z,1.60
2019-02-20T06:25:42.312Z,1.70
2019-02-20T06:28:11.791Z,1.70
2019-02-20T06:30:41.265Z,1.70
2019-02-20T06:33:10.655Z,1.60
2019-02-20T06:35:41.384Z,1.50
2019-02-20T06:38:11.622Z,1.50
2019-02-20T06:40:42.756Z,1.50
2019-02-20T06:43:12.203Z,1.60
2019-02-20T06:45:41.648Z,1.60
2019-02-20T06:48:11.064Z,1.60
2019-02-20T06:50:41.779Z,1.40
2019-02-20T06:53:11.271Z,1.50
2019-02-20T06:55:42.403Z,1.50
2019-02-20T06:58:11.818Z,1.50
2019-02-20T07:00:41.231Z,1.50
2019-02-20T07:03:10.746Z,1.60
2019-02-20T07:05:41.731Z,1.70
2019-02-20T07:08:34.052Z,2.00
2019-02-20T07:11:29.170Z,2.30
2019-02-20T07:14:18.483Z,2.80
2019-02-20T07:17:18.458Z,2.90
2019-02-20T07:20:15.656Z,2.80
2019-02-20T07:22:52.562Z,2.90
2019-02-20T07:25:28.275Z,2.90
2019-02-20T07:28:16.165Z,3.00
2019-02-20T07:30:46.953Z,3.00
2019-02-20T07:33:16.466Z,3.30
2019-02-20T07:35:47.171Z,3.60
2019-02-20T07:38:16.618Z,3.60
2019-02-20T07:40:47.299Z,3.60
2019-02-20T07:43:16.819Z,3.40
2019-02-20T07:45:46.298Z,3.30
2019-02-20T07:48:15.825Z,3.60
2019-02-20T07:50:45.301Z,4.00
2019-02-20T07:53:14.829Z,4.00
2019-02-20T07:55:45.513Z,4.80
2019-02-20T07:58:15.032Z,5.80
2019-02-20T08:00:44.442Z,6.60
2019-02-20T08:03:13.962Z,6.60
2019-02-20T08:05:43.382Z,6.60
2019-02-20T08:08:12.907Z,6.80
2019-02-20T08:10:43.583Z,6.50
2019-02-20T08:13:13.047Z,6.50
2019-02-20T08:15:43.923Z,6.90
2019-02-20T08:18:13.447Z,8.00
2019-02-20T08:20:44.136Z,9.10
2019-02-20T08:23:13.652Z,10.10
2019-02-20T08:25:43.201Z,11.10
2019-02-20T08:28:12.725Z,11.00
2019-02-20T08:30:43.416Z,10.60
2019-02-20T08:33:12.964Z,10.60
2019-02-20T08:35:43.751Z,10.50
2019-02-20T08:38:13.268Z,10.50
2019-02-20T08:40:42.784Z,9.80
2019-02-20T08:43:12.262Z,9.00
2019-02-20T08:45:43.372Z,8.50
2019-02-20T08:48:12.783Z,8.20
2019-02-20T08:50:43.599Z,7.90
2019-02-20T08:53:13.091Z,8.00
2019-02-20T08:55:42.614Z,8.40
2019-02-20T08:58:12.095Z,8.30
2019-02-20T09:00:43.114Z,8.60
2019-02-20T09:03:12.619Z,11.00
2019-02-20T09:05:43.635Z,12.70
2019-02-20T09:08:13.121Z,12.90
2019-02-20T09:13:50.588Z,11.30
2019-02-20T09:16:33.734Z,11.10
2019-02-20T09:22:43.971Z,10.40
2019-02-20T09:32:25.062Z,11.00
2019-02-20T09:34:54.721Z,11.20
2019-02-20T09:37:25.403Z,11.60
2019-02-20T09:39:54.855Z,11.50
2019-02-20T09:42:24.281Z,11.30
2019-02-20T09:44:53.730Z,11.20
2019-02-20T09:47:24.579Z,11.10
2019-02-20T09:49:54.126Z,10.90
2019-02-20T09:52:38.117Z,10.80
2019-02-20T09:55:10.364Z,10.90
2019-02-20T09:57:41.151Z,11.10
2019-02-20T10:00:20.078Z,11.00
2019-02-20T10:02:51.031Z,11.40
2019-02-20T10:05:22.027Z,11.90
2019-02-20T10:07:51.511Z,12.10
2019-02-20T10:10:22.451Z,12.00
2019-02-20T10:12:51.982Z,12.30
2019-02-20T10:15:22.877Z,12.50
2019-02-20T10:17:52.364Z,12.80
2019-02-20T10:20:23.175Z,12.80
2019-02-20T10:22:52.630Z,12.60
2019-02-20T10:25:23.315Z,13.00
2019-02-20T10:27:52.767Z,13.10
2019-02-20T10:30:24.021Z,13.20
2019-02-20T10:32:53.506Z,13.60
2019-02-20T10:35:22.999Z,15.10
2019-02-20T10:37:52.992Z,15.40
2019-02-20T10:40:24.005Z,16.00
2019-02-20T10:42:53.454Z,17.20
2019-02-20T10:45:24.138Z,17.00
2019-02-20T10:47:53.595Z,16.90
2019-02-20T10:50:23.083Z,16.40
2019-02-20T10:52:52.913Z,15.60
2019-02-20T10:55:23.582Z,14.70
2019-02-20T10:57:56.383Z,14.60
2019-02-20T11:00:28.817Z,14.10
2019-02-20T11:02:58.435Z,13.60
2019-02-20T11:05:29.569Z,13.40
2019-02-20T11:07:59.388Z,13.50
2019-02-20T11:10:30.600Z,13.30
2019-02-20T11:13:00.121Z,13.70
2019-02-20T11:15:31.112Z,14.00
2019-02-20T11:18:00.626Z,13.60
2019-02-20T11:20:31.588Z,12.80
2019-02-20T11:23:01.039Z,12.60
2019-02-20T11:25:31.336Z,13.60
2019-02-20T11:28:02.098Z,15.20
2019-02-20T11:30:32.894Z,16.00
2019-02-20T11:33:04.134Z,16.60
2019-02-20T11:35:33.619Z,16.30
2019-02-20T11:38:03.138Z,15.90
2019-02-20T11:40:34.028Z,16.70
2019-02-20T11:43:03.743Z,16.60
2019-02-20T11:45:33.230Z,15.70
2019-02-20T11:48:02.775Z,14.60
2019-02-20T11:50:32.452Z,13.70
2019-02-20T11:53:01.972Z,12.80
2019-02-20T11:55:31.855Z,12.60
2019-02-20T11:58:01.392Z,12.30
2019-02-20T12:00:32.346Z,11.80
2019-02-20T12:03:02.215Z,12.20
2019-02-20T12:05:32.999Z,12.20
2019-02-20T12:08:02.455Z,12.40
2019-02-20T12:10:31.979Z,13.00
2019-02-20T12:13:01.471Z,14.70
2019-02-20T12:15:32.298Z,14.90
2019-02-20T12:18:03.415Z,15.60
2019-02-20T12:20:33.097Z,17.30
2019-02-20T12:23:02.584Z,16.80
2019-02-20T12:25:33.291Z,15.80
2019-02-20T12:28:02.770Z,16.10
2019-02-20T12:30:32.274Z,14.50
2019-02-20T12:33:01.770Z,13.20
2019-02-20T12:35:31.283Z,13.20
2019-02-20T12:38:02.432Z,13.40
2019-02-20T12:40:31.906Z,12.90
2019-02-20T12:43:01.391Z,12.80
2019-02-20T12:45:32.580Z,12.00
2019-02-20T12:48:02.058Z,11.90
2019-02-20T12:50:33.043Z,11.70
2019-02-20T12:53:02.463Z,12.10
2019-02-20T12:55:32.992Z,12.20
2019-02-20T12:58:02.652Z,12.10
2019-02-20T13:00:33.635Z,11.90
2019-02-20T13:03:03.215Z,11.50
2019-02-20T13:05:34.116Z,11.40
2019-02-20T13:08:03.599Z,11.40
2019-02-20T13:10:36.055Z,11.30
2019-02-20T13:13:05.540Z,11.30
2019-02-20T13:15:36.549Z,11.00
2019-02-20T13:18:06.095Z,10.90
2019-02-20T13:20:36.803Z,11.00
2019-02-20T13:23:06.221Z,11.10
2019-02-20T13:25:35.735Z,11.40
2019-02-20T13:28:05.158Z,11.40
2019-02-20T13:30:34.684Z,11.40
2019-02-20T13:33:04.760Z,11.20
2019-02-20T13:35:34.566Z,11.40
2019-02-20T13:38:04.056Z,11.30
2019-02-20T13:40:35.740Z,11.30
2019-02-20T13:43:05.292Z,11.20
2019-02-20T13:45:34.802Z,11.20
2019-02-20T13:48:04.587Z,11.40
2019-02-20T13:50:34.620Z,10.90
2019-02-20T13:53:04.200Z,10.40
2019-02-20T13:55:35.000Z,10.40
2019-02-20T13:58:04.476Z,10.20
2019-02-20T14:00:35.876Z,10.20
2019-02-20T14:03:05.862Z,10.10
2019-02-20T14:05:36.574Z,10.10
2019-02-20T14:08:05.987Z,10.10
2019-02-20T14:10:35.463Z,9.90
2019-02-20T14:13:04.899Z,9.80
2019-02-20T14:15:34.472Z,9.90
2019-02-20T14:18:04.888Z,9.80
2019-02-20T14:20:34.560Z,9.70
2019-02-20T14:23:04.064Z,9.80
2019-02-20T14:25:34.137Z,9.90
2019-02-20T14:28:03.579Z,9.80
2019-02-20T14:30:33.070Z,9.90
2019-02-20T14:33:02.951Z,10.10
2019-02-20T14:35:32.429Z,10.20
2019-02-20T14:38:01.934Z,10.20
2019-02-20T14:40:31.815Z,10.10
2019-02-20T14:43:01.323Z,10.30
2019-02-20T14:45:32.604Z,10.10
2019-02-20T14:48:02.416Z,10.20
2019-02-20T14:50:33.204Z,10.00
2019-02-20T14:53:03.227Z,9.80
2019-02-20T14:55:33.897Z,9.80
2019-02-20T14:58:03.417Z,9.80
2019-02-20T15:00:34.275Z,9.70
2019-02-20T15:03:04.114Z,9.80
2019-02-20T15:05:33.798Z,9.70
2019-02-20T15:08:03.309Z,9.60
2019-02-20T15:10:32.996Z,9.60
2019-02-20T15:13:02.611Z,9.60
2019-02-20T15:15:33.787Z,9.50
2019-02-20T15:18:04.010Z,9.50
2019-02-20T15:20:35.485Z,9.40
2019-02-20T15:23:04.888Z,9.40
2019-02-20T15:25:36.067Z,9.30
2019-02-20T15:28:06.065Z,9.40
2019-02-20T15:30:36.744Z,9.40
2019-02-20T15:33:06.239Z,9.40
2019-02-20T15:35:37.319Z,9.40
2019-02-20T15:38:08.044Z,9.40
2019-02-20T15:40:38.618Z,9.30
2019-02-20T15:43:09.606Z,9.30
2019-02-20T15:45:40.876Z,9.30
2019-02-20T15:48:10.486Z,9.30
2019-02-20T15:50:41.194Z,9.20
2019-02-20T15:53:10.630Z,9.10
2019-02-20T15:55:40.116Z,9.10
2019-02-20T15:58:09.528Z,9.10
2019-02-20T16:00:41.258Z,9.10
2019-02-20T16:03:13.631Z,9.00
2019-02-20T16:05:44.442Z,8.90
2019-02-20T16:08:16.254Z,8.90
2019-02-20T16:10:47.393Z,8.80
2019-02-20T16:13:17.482Z,8.80
2019-02-20T16:15:46.995Z,8.70
2019-02-20T16:18:16.427Z,8.70
2019-02-20T16:20:48.099Z,8.60
2019-02-20T16:23:17.672Z,8.60
2019-02-20T16:25:47.104Z,8.50
2019-02-20T16:28:16.983Z,8.50
2019-02-20T16:30:46.486Z,8.40
2019-02-20T16:33:15.894Z,8.40
2019-02-20T16:35:45.354Z,8.30
2019-02-20T16:38:14.765Z,8.20
2019-02-20T16:40:46.170Z,8.20
2019-02-20T16:43:19.988Z,8.10
2019-02-20T16:45:49.505Z,8.10
2019-02-20T16:48:19.079Z,8.00
2019-02-20T16:50:49.102Z,7.90
2019-02-20T16:53:18.523Z,7.90
2019-02-20T16:55:51.400Z,7.80
2019-02-20T16:58:23.586Z,7.80
2019-02-20T17:00:54.268Z,7.80
2019-02-20T17:03:23.757Z,7.70
2019-02-20T17:05:53.952Z,7.80
2019-02-20T17:08:26.105Z,7.80
2019-02-20T17:10:56.117Z,7.70
2019-02-20T17:13:25.599Z,7.60
2019-02-20T17:15:58.690Z,7.50
2019-02-20T17:18:28.347Z,7.40
2019-02-20T17:20:58.441Z,7.40
2019-02-20T17:23:27.923Z,7.30
2019-02-20T17:25:57.649Z,7.20
2019-02-20T17:28:27.071Z,7.10
2019-02-20T17:30:57.982Z,7.10
2019-02-20T17:33:27.472Z,7.10
2019-02-20T17:35:56.931Z,7.00
2019-02-20T17:38:26.343Z,7.00
2019-02-20T17:40:57.096Z,6.90
2019-02-20T17:43:26.651Z,6.80
2019-02-20T17:45:56.170Z,6.80
2019-02-20T17:48:25.702Z,6.80
2019-02-20T17:50:56.393Z,6.70
2019-02-20T17:53:26.059Z,6.70
2019-02-20T17:55:55.536Z,6.80
2019-02-20T17:58:24.985Z,6.80
2019-02-20T18:00:54.541Z,7.00
2019-02-20T18:03:24.057Z,6.90
2019-02-20T18:05:54.859Z,6.70
2019-02-20T18:08:26.599Z,6.70
2019-02-20T18:10:57.372Z,6.60
2019-02-20T18:13:26.884Z,6.50
2019-02-20T18:15:57.563Z,6.60
2019-02-20T18:18:28.181Z,6.70
2019-02-20T18:20:59.207Z,6.70
2019-02-20T18:23:28.653Z,6.70
2019-02-20T18:25:59.330Z,6.50
2019-02-20T18:28:28.766Z,6.60
2019-02-20T18:30:59.702Z,6.50
2019-02-20T18:33:29.148Z,6.60
2019-02-20T18:35:58.635Z,6.50
2019-02-20T18:38:28.066Z,6.50
2019-02-20T18:40:58.892Z,6.40
2019-02-20T18:43:29.805Z,6.40
2019-02-20T18:45:59.209Z,6.40
2019-02-20T18:48:28.652Z,6.30
2019-02-20T18:50:58.197Z,6.30
2019-02-20T18:53:27.630Z,6.30
2019-02-20T18:55:57.052Z,6.30
2019-02-20T18:58:33.666Z,6.30
2019-02-20T19:00:58.987Z,6.30
2019-02-20T19:03:28.574Z,6.40
2019-02-20T19:05:57.993Z,6.40
2019-02-20T19:08:47.474Z,6.30
2019-02-20T19:11:32.684Z,6.30
2019-02-20T19:14:20.620Z,6.20
2019-02-20T19:17:20.696Z,6.20
2019-02-20T19:20:02.307Z,6.30
2019-02-20T19:22:36.529Z,6.40
2019-02-20T19:25:28.225Z,6.30
2019-02-20T19:28:21.790Z,6.40
2019-02-20T19:31:20.009Z,6.30
2019-02-20T19:34:04.439Z,6.40
2019-02-20T19:36:56.489Z,6.40
2019-02-20T19:39:31.986Z,6.30
2019-02-20T19:42:18.796Z,6.30
2019-02-20T19:44:51.628Z,6.30
2019-02-20T19:47:25.589Z,6.30
2019-02-20T19:50:04.353Z,6.20
2019-02-20T19:52:50.145Z,6.20
2019-02-20T19:55:42.401Z,6.20
2019-02-20T19:58:33.140Z,6.10
2019-02-20T20:01:11.688Z,6.10
2019-02-20T20:03:53.143Z,6.00
2019-02-20T20:06:34.684Z,6.00
2019-02-20T20:09:24.357Z,6.00
2019-02-20T20:12:13.590Z,6.00
2019-02-20T20:14:51.492Z,6.00
2019-02-20T20:17:42.040Z,6.00
2019-02-20T20:20:20.218Z,6.00
2019-02-20T20:23:06.397Z,6.00
2019-02-20T20:25:46.409Z,5.80
2019-02-20T20:28:26.389Z,5.70
2019-02-20T20:31:09.033Z,5.60
2019-02-20T20:33:44.343Z,5.60
2019-02-20T20:36:21.175Z,5.50
2019-02-20T20:39:13.135Z,5.50
2019-02-20T20:42:12.985Z,5.60
2019-02-20T20:45:05.137Z,5.70
2019-02-20T20:47:58.797Z,5.60
2019-02-20T20:50:49.750Z,5.60
2019-02-20T20:53:25.350Z,5.50
2019-02-20T20:56:07.148Z,5.40
2019-02-20T20:58:48.642Z,5.40
2019-02-20T21:01:43.769Z,5.30
2019-02-20T21:04:23.618Z,5.30
2019-02-20T21:07:17.228Z,5.20
2019-02-20T21:09:55.993Z,4.90
2019-02-20T21:12:53.681Z,5.00
2019-02-20T21:15:35.429Z,5.00
2019-02-20T21:18:27.814Z,5.00
2019-02-20T21:21:09.290Z,5.10
2019-02-20T21:24:20.535Z,5.10
2019-02-20T21:27:08.136Z,5.20
2019-02-20T21:29:52.886Z,5.10
2019-02-20T21:32:31.676Z,5.10
2019-02-20T21:35:04.718Z,5.10
2019-02-20T21:38:12.368Z,5.00
2019-02-20T21:40:53.016Z,4.90
2019-02-20T21:43:34.510Z,4.90
2019-02-20T21:46:25.182Z,4.90
2019-02-20T21:49:12.943Z,4.90
2019-02-20T21:51:47.056Z,4.90
2019-02-20T21:54:21.620Z,4.80
2019-02-20T21:57:04.295Z,4.70
2019-02-20T21:59:53.666Z,4.70
2019-02-20T22:02:42.786Z,4.60
2019-02-20T22:05:33.666Z,4.70
2019-02-20T22:08:24.581Z,4.60
2019-02-20T22:11:15.467Z,4.60
2019-02-20T22:13:54.378Z,4.60
2019-02-20T22:16:43.811Z,4.50
2019-02-20T22:19:31.946Z,4.50
2019-02-20T22:22:10.368Z,4.40
2019-02-20T22:25:08.900Z,4.50
2019-02-20T22:27:52.272Z,4.40
2019-02-20T22:30:29.307Z,4.30
2019-02-20T22:33:14.190Z,4.20
2019-02-20T22:36:03.155Z,4.20
2019-02-20T22:38:41.523Z,4.20
2019-02-20T22:41:20.648Z,4.10
2019-02-20T22:44:26.594Z,4.10
2019-02-20T22:47:06.066Z,4.00
2019-02-20T22:49:48.450Z,4.00
2019-02-20T22:52:36.800Z,4.00
2019-02-20T22:55:24.647Z,4.00
2019-02-20T22:58:00.731Z,3.90
2019-02-20T23:01:03.022Z,4.00
2019-02-20T23:03:38.624Z,3.90
2019-02-20T23:06:23.403Z,3.80
2019-02-20T23:09:11.191Z,3.80
2019-02-20T23:12:06.775Z,3.80
2019-02-20T23:14:48.011Z,3.80
2019-02-20T23:17:17.534Z,4.10
2019-02-20T23:19:47.115Z,4.10
2019-02-20T23:22:18.010Z,4.10
2019-02-20T23:24:47.527Z,3.80
2019-02-20T23:27:17.059Z,3.90
2019-02-20T23:29:46.625Z,3.80
2019-02-20T23:32:16.149Z,3.70
2019-02-20T23:34:45.638Z,3.90
2019-02-20T23:37:16.555Z,3.90
2019-02-20T23:39:46.040Z,3.90
2019-02-20T23:42:16.058Z,3.80
2019-02-20T23:44:45.551Z,3.80
2019-02-20T23:47:16.574Z,3.80
2019-02-20T23:49:46.059Z,3.90
2019-02-20T23:52:17.083Z,3.90
2019-02-20T23:54:46.662Z,3.80
2019-02-20T23:57:17.475Z,3.80
2019-02-20T23:59:46.999Z,3.80
